createdAt,value
2023-04-22T00:00:21.572Z,23.09
2023-04-22T00:01:21.499Z,23.09
2023-04-22T00:02:21.614Z,23.09
2023-04-22T00:03:21.722Z,23.09
2023-04-22T00:04:21.832Z,23.09
2023-04-22T00:05:21.924Z,23.09
2023-04-22T00:06:21.696Z,23.10
2023-04-22T00:07:21.756Z,23.09
2023-04-22T00:08:21.755Z,23.09
2023-04-22T00:09:21.818Z,23.10
2023-04-22T00:10:21.826Z,23.09
2023-04-22T00:11:21.883Z,23.09
2023-04-22T00:12:21.909Z,23.10
2023-04-22T00:13:21.946Z,23.10
2023-04-22T00:14:21.971Z,23.10
2023-04-22T00:15:21.989Z,23.09
2023-04-22T00:16:22.038Z,23.09
2023-04-22T00:17:22.058Z,23.09
2023-04-22T00:18:22.060Z,23.10
2023-04-22T00:19:22.077Z,23.10
2023-04-22T00:20:22.052Z,23.09
2023-04-22T00:21:22.069Z,23.09
2023-04-22T00:22:22.112Z,23.09
2023-04-22T00:23:22.125Z,23.09
2023-04-22T00:24:22.122Z,23.09
2023-04-22T00:25:22.159Z,23.09
2023-04-22T00:26:22.182Z,23.09
2023-04-22T00:27:22.199Z,23.09
2023-04-22T00:28:22.200Z,23.09
2023-04-22T00:29:22.242Z,23.09
2023-04-22T00:30:22.245Z,23.09
2023-04-22T00:31:22.278Z,23.09
2023-04-22T00:32:22.323Z,23.10
2023-04-22T00:33:22.301Z,23.10
2023-04-22T00:34:22.293Z,23.09
2023-04-22T00:35:22.308Z,23.09
2023-04-22T00:36:22.340Z,23.09
2023-04-22T00:37:22.333Z,23.09
2023-04-22T00:38:22.328Z,23.09
2023-04-22T00:39:22.388Z,23.09
2023-04-22T00:40:22.367Z,23.09
2023-04-22T00:41:22.379Z,23.10
2023-04-22T00:42:22.379Z,23.09
2023-04-22T00:43:22.428Z,23.09
2023-04-22T00:44:22.453Z,23.09
2023-04-22T00:45:22.507Z,23.09
2023-04-22T00:46:22.535Z,23.09
2023-04-22T00:47:22.588Z,23.10
2023-04-22T00:48:22.557Z,23.09
2023-04-22T00:49:22.562Z,23.09
2023-04-22T00:50:22.598Z,23.09
2023-04-22T00:51:22.620Z,23.09
2023-04-22T00:52:22.603Z,23.08
2023-04-22T00:53:22.642Z,23.09
2023-04-22T00:54:22.624Z,23.09
2023-04-22T00:55:22.647Z,23.08
2023-04-22T00:56:22.655Z,23.09
2023-04-22T00:57:22.667Z,23.09
2023-04-22T00:58:22.685Z,23.08
2023-04-22T00:59:22.713Z,23.09
2023-04-22T01:00:22.691Z,23.08
2023-04-22T01:01:22.791Z,23.09
2023-04-22T01:02:22.848Z,23.09
2023-04-22T01:03:22.970Z,23.09
2023-04-22T01:04:22.867Z,23.09
2023-04-22T01:05:22.816Z,23.09
2023-04-22T01:06:22.899Z,23.09
2023-04-22T01:07:22.869Z,23.09
2023-04-22T01:08:22.904Z,23.09
2023-04-22T01:09:22.934Z,23.09
2023-04-22T01:10:22.943Z,23.09
2023-04-22T01:11:22.949Z,23.09
2023-04-22T01:12:22.988Z,23.09
2023-04-22T01:13:23.007Z,23.09
2023-04-22T01:14:23.025Z,23.09
2023-04-22T01:15:23.064Z,23.09
2023-04-22T01:16:23.143Z,23.09
2023-04-22T01:17:23.099Z,23.09
2023-04-22T01:18:23.128Z,23.09
2023-04-22T01:19:23.126Z,23.09
2023-04-22T01:20:23.147Z,23.09
2023-04-22T01:21:23.191Z,23.08
2023-04-22T01:22:23.191Z,23.08
2023-04-22T01:23:23.201Z,23.08
2023-04-22T01:24:23.219Z,23.09
2023-04-22T01:25:23.254Z,23.08
2023-04-22T01:26:23.236Z,23.09
2023-04-22T01:27:23.265Z,23.08
2023-04-22T01:28:23.276Z,23.08
2023-04-22T01:29:23.281Z,23.09
2023-04-22T01:30:23.283Z,23.09
2023-04-22T01:31:23.353Z,23.09
2023-04-22T01:32:23.421Z,23.09
2023-04-22T01:33:23.352Z,23.09
2023-04-22T01:34:23.364Z,23.08
2023-04-22T01:35:23.387Z,23.09
2023-04-22T01:36:23.428Z,23.08
2023-04-22T01:37:23.458Z,23.08
2023-04-22T01:38:23.465Z,23.09
2023-04-22T01:39:23.455Z,23.08
2023-04-22T01:40:23.512Z,23.08
2023-04-22T01:41:23.509Z,23.08
2023-04-22T01:42:23.556Z,23.08
2023-04-22T01:43:23.580Z,23.08
2023-04-22T01:44:23.585Z,23.08
2023-04-22T01:45:23.611Z,23.08
2023-04-22T01:46:23.661Z,23.08
2023-04-22T01:47:23.659Z,23.08
2023-04-22T01:48:23.680Z,23.08
2023-04-22T01:49:23.700Z,23.09
2023-04-22T01:50:23.727Z,23.09
2023-04-22T01:51:23.775Z,23.09
2023-04-22T01:52:23.889Z,23.08
2023-04-22T01:53:23.826Z,23.08
2023-04-22T01:54:23.826Z,23.08
2023-04-22T01:55:23.835Z,23.09
2023-04-22T01:56:23.871Z,23.08
2023-04-22T01:57:23.879Z,23.07
2023-04-22T01:58:23.882Z,23.08
2023-04-22T01:59:23.906Z,23.08
2023-04-22T02:00:23.967Z,23.08
2023-04-22T02:01:24.002Z,23.08
2023-04-22T02:02:24.080Z,23.08
2023-04-22T02:03:24.245Z,23.08
2023-04-22T02:04:24.035Z,23.08
2023-04-22T02:05:24.034Z,23.07
2023-04-22T02:06:24.106Z,23.08
2023-04-22T02:07:24.060Z,23.07
2023-04-22T02:08:24.086Z,23.08
2023-04-22T02:09:24.127Z,23.08
2023-04-22T02:10:24.189Z,23.08
2023-04-22T02:11:24.250Z,23.08
2023-04-22T02:12:24.252Z,23.08
2023-04-22T02:13:24.305Z,23.07
2023-04-22T02:14:24.362Z,23.07
2023-04-22T02:15:24.383Z,23.07
2023-04-22T02:16:24.595Z,23.08
2023-04-22T02:17:24.478Z,23.08
2023-04-22T02:18:24.527Z,23.08
2023-04-22T02:19:24.579Z,23.08
2023-04-22T02:20:24.577Z,23.08
2023-04-22T02:21:24.660Z,23.07
2023-04-22T02:22:24.685Z,23.07
2023-04-22T02:23:24.726Z,23.07
2023-04-22T02:24:24.754Z,23.07
2023-04-22T02:25:24.805Z,23.07
2023-04-22T02:26:24.814Z,23.07
2023-04-22T02:27:24.869Z,23.06
2023-04-22T02:28:24.854Z,23.06
2023-04-22T02:30:51.412Z,22.99
2023-04-22T02:31:43.798Z,23.01
2023-04-22T02:32:43.785Z,23.03
2023-04-22T02:33:43.711Z,23.04
2023-04-22T02:34:43.708Z,23.04
2023-04-22T02:35:43.702Z,23.05
2023-04-22T02:36:43.726Z,23.06
2023-04-22T02:37:43.696Z,23.05
2023-04-22T02:38:43.698Z,23.05
2023-04-22T02:39:43.691Z,23.05
2023-04-22T02:40:43.706Z,23.06
2023-04-22T02:41:43.707Z,23.06
2023-04-22T02:42:43.660Z,23.06
2023-04-22T02:43:43.658Z,23.05
2023-04-22T02:44:44.044Z,23.05
2023-04-22T02:45:43.668Z,23.06
2023-04-22T02:46:43.692Z,23.05
2023-04-22T02:47:43.778Z,23.05
2023-04-22T02:48:43.839Z,23.06
2023-04-22T02:49:43.906Z,23.05
2023-04-22T02:50:43.989Z,23.05
2023-04-22T02:51:44.039Z,23.06
2023-04-22T02:52:44.450Z,23.06
2023-04-22T02:53:44.143Z,23.05
2023-04-22T02:54:44.229Z,23.06
2023-04-22T02:55:44.274Z,23.05
2023-04-22T02:56:44.683Z,23.06
2023-04-22T02:57:44.374Z,23.06
2023-04-22T02:58:44.435Z,23.06
2023-04-22T02:59:44.522Z,23.05
2023-04-22T03:00:44.603Z,23.06
2023-04-22T03:01:44.622Z,23.06
2023-04-22T03:02:44.817Z,23.05
2023-04-22T03:03:44.911Z,23.05
2023-04-22T03:04:44.847Z,23.04
2023-04-22T03:05:44.889Z,23.05
2023-04-22T03:06:45.269Z,23.04
2023-04-22T03:07:45.010Z,23.04
2023-04-22T03:08:45.062Z,23.05
2023-04-22T03:09:45.098Z,23.04
2023-04-22T03:10:45.205Z,23.04
2023-04-22T03:11:45.208Z,23.03
2023-04-22T03:12:45.302Z,23.04
2023-04-22T03:13:45.370Z,23.04
2023-04-22T03:14:45.412Z,23.04
2023-04-22T03:15:45.506Z,23.03
2023-04-22T03:16:45.587Z,23.04
2023-04-22T03:17:45.623Z,23.04
2023-04-22T03:18:45.651Z,23.04
2023-04-22T03:19:53.339Z,23.05
2023-04-22T03:20:45.747Z,23.04
2023-04-22T03:21:45.737Z,23.04
2023-04-22T03:22:45.695Z,23.04
2023-04-22T03:23:46.010Z,23.04
2023-04-22T03:24:45.686Z,23.04
2023-04-22T03:25:45.667Z,23.04
2023-04-22T03:26:45.654Z,23.04
2023-04-22T03:27:45.669Z,23.05
2023-04-22T03:28:45.688Z,23.04
2023-04-22T03:29:45.660Z,23.04
2023-04-22T03:30:45.629Z,23.05
2023-04-22T03:31:45.702Z,23.05
2023-04-22T03:32:45.708Z,23.04
2023-04-22T03:33:45.715Z,23.04
2023-04-22T03:34:45.830Z,23.04
2023-04-22T03:35:45.860Z,23.04
2023-04-22T03:36:45.934Z,23.05
2023-04-22T03:37:46.323Z,23.05
2023-04-22T03:38:46.063Z,23.04
2023-04-22T03:39:46.143Z,23.04
2023-04-22T03:40:46.213Z,23.05
2023-04-22T03:41:46.256Z,23.04
2023-04-22T03:42:46.302Z,23.05
2023-04-22T03:43:47.290Z,23.05
2023-04-22T03:44:46.788Z,23.04
2023-04-22T03:45:46.534Z,23.04
2023-04-22T03:46:46.540Z,23.04
2023-04-22T03:47:47.910Z,23.04
2023-04-22T03:48:46.683Z,23.04
2023-04-22T03:49:46.750Z,23.04
2023-04-22T03:50:46.830Z,23.04
2023-04-22T03:51:46.872Z,23.04
2023-04-22T03:52:47.487Z,23.03
2023-04-22T03:53:46.980Z,23.04
2023-04-22T03:54:47.131Z,23.02
2023-04-22T03:55:47.118Z,23.04
2023-04-22T03:56:47.200Z,23.03
2023-04-22T03:57:47.534Z,23.03
2023-04-22T03:58:47.272Z,23.02
2023-04-22T03:59:47.344Z,23.03
2023-04-22T04:00:47.740Z,23.03
2023-04-22T04:01:47.566Z,23.03
2023-04-22T04:02:47.599Z,23.03
2023-04-22T04:03:47.626Z,23.02
2023-04-22T04:04:47.923Z,23.02
2023-04-22T04:05:47.807Z,23.02
2023-04-22T04:06:47.783Z,23.03
2023-04-22T04:07:47.824Z,23.03
2023-04-22T04:08:47.916Z,23.02
2023-04-22T04:09:47.962Z,23.02
2023-04-22T04:10:48.020Z,23.03
2023-04-22T04:11:48.051Z,23.03
2023-04-22T04:12:48.182Z,23.02
2023-04-22T04:13:48.190Z,23.02
2023-04-22T04:14:48.246Z,23.02
2023-04-22T04:15:48.372Z,23.02
2023-04-22T04:16:48.394Z,23.02
2023-04-22T04:17:48.546Z,23.02
2023-04-22T04:18:48.470Z,23.02
2023-04-22T04:19:48.554Z,23.02
2023-04-22T04:20:48.636Z,23.02
2023-04-22T04:21:48.688Z,23.02
2023-04-22T04:22:48.699Z,23.02
2023-04-22T04:23:48.778Z,23.02
2023-04-22T04:24:48.831Z,23.02
2023-04-22T04:25:48.908Z,23.02
2023-04-22T04:26:48.984Z,23.02
2023-04-22T04:27:49.264Z,23.02
2023-04-22T04:28:49.046Z,23.01
2023-04-22T04:29:49.110Z,23.02
2023-04-22T04:30:49.184Z,23.02
2023-04-22T04:31:49.296Z,23.01
2023-04-22T04:32:49.258Z,23.01
2023-04-22T04:33:49.663Z,23.01
2023-04-22T04:34:49.303Z,23.01
2023-04-22T04:35:49.387Z,23.00
2023-04-22T04:36:49.433Z,23.01
2023-04-22T04:37:49.454Z,23.00
2023-04-22T04:38:49.497Z,23.00
2023-04-22T04:39:49.544Z,23.00
2023-04-22T04:40:49.576Z,23.00
2023-04-22T04:41:49.708Z,23.01
2023-04-22T04:42:49.648Z,23.01
2023-04-22T04:43:49.684Z,23.01
2023-04-22T04:44:50.109Z,23.01
2023-04-22T04:45:49.760Z,23.02
2023-04-22T04:46:49.817Z,23.01
2023-04-22T04:47:49.928Z,23.01
2023-04-22T04:48:49.922Z,23.02
2023-04-22T04:49:50.041Z,23.01
2023-04-22T04:50:50.000Z,23.01
2023-04-22T04:51:50.061Z,23.01
2023-04-22T04:52:50.096Z,23.01
2023-04-22T04:53:50.137Z,23.01
2023-04-22T04:54:50.217Z,23.02
2023-04-22T04:55:50.236Z,23.01
2023-04-22T04:56:50.330Z,23.01
2023-04-22T04:57:50.339Z,23.01
2023-04-22T04:58:50.452Z,23.02
2023-04-22T04:59:50.374Z,23.02
2023-04-22T05:00:50.412Z,23.01
2023-04-22T05:01:50.543Z,23.01
2023-04-22T05:02:50.605Z,23.01
2023-04-22T05:03:52.034Z,23.01
2023-04-22T05:04:50.820Z,23.01
2023-04-22T05:05:50.711Z,23.01
2023-04-22T05:06:50.758Z,23.02
2023-04-22T05:07:50.810Z,23.02
2023-04-22T05:08:50.888Z,23.02
2023-04-22T05:09:50.943Z,23.03
2023-04-22T05:10:51.031Z,23.02
2023-04-22T05:11:51.046Z,23.03
2023-04-22T05:12:51.186Z,23.03
2023-04-22T05:13:51.145Z,23.03
2023-04-22T05:14:51.587Z,23.02
2023-04-22T05:15:51.941Z,23.03
2023-04-22T05:16:51.443Z,23.03
2023-04-22T05:17:51.451Z,23.02
2023-04-22T05:18:51.471Z,23.03
2023-04-22T05:19:51.506Z,23.03
2023-04-22T05:20:51.580Z,23.03
2023-04-22T05:21:51.651Z,23.03
2023-04-22T05:22:51.693Z,23.03
2023-04-22T05:23:51.774Z,23.03
2023-04-22T05:24:51.844Z,23.03
2023-04-22T05:25:53.417Z,23.04
2023-04-22T05:26:51.962Z,23.03
2023-04-22T05:27:52.320Z,23.03
2023-04-22T05:28:52.331Z,23.03
2023-04-22T05:29:52.117Z,23.03
2023-04-22T05:30:52.238Z,23.03
2023-04-22T05:31:52.274Z,23.03
2023-04-22T05:32:52.293Z,23.04
2023-04-22T05:33:52.303Z,23.04
2023-04-22T05:34:52.367Z,23.04
2023-04-22T05:35:52.492Z,23.04
2023-04-22T05:36:52.635Z,23.05
2023-04-22T05:37:52.580Z,23.05
2023-04-22T05:38:52.667Z,23.05
2023-04-22T05:39:52.740Z,23.05
2023-04-22T05:40:53.210Z,23.05
2023-04-22T05:41:52.809Z,23.04
2023-04-22T05:42:52.889Z,23.04
2023-04-22T05:43:52.995Z,23.04
2023-04-22T05:44:53.006Z,23.04
2023-04-22T05:45:53.127Z,23.04
2023-04-22T05:46:53.159Z,23.05
2023-04-22T05:47:53.304Z,23.05
2023-04-22T05:48:53.266Z,23.05
2023-04-22T05:49:53.293Z,23.05
2023-04-22T05:50:53.952Z,23.05
2023-04-22T05:51:53.512Z,23.05
2023-04-22T05:52:53.450Z,23.06
2023-04-22T05:53:53.519Z,23.06
2023-04-22T05:54:53.583Z,23.06
2023-04-22T05:55:53.679Z,23.06
2023-04-22T05:56:53.777Z,23.05
2023-04-22T05:57:53.805Z,23.06
2023-04-22T05:58:53.855Z,23.05
2023-04-22T05:59:53.959Z,23.06
2023-04-22T06:00:53.990Z,23.05
2023-04-22T06:01:54.032Z,23.06
2023-04-22T06:02:54.272Z,23.07
2023-04-22T06:03:54.381Z,23.06
2023-04-22T06:04:54.632Z,23.06
2023-04-22T06:05:54.422Z,23.07
2023-04-22T06:06:54.364Z,23.07
2023-04-22T06:07:54.436Z,23.07
2023-04-22T06:08:55.032Z,23.08
2023-04-22T06:10:03.785Z,23.08
2023-04-22T06:10:55.839Z,23.06
2023-04-22T06:11:54.842Z,23.08
2023-04-22T06:12:54.806Z,23.08
2023-04-22T06:13:55.462Z,23.08
2023-04-22T06:14:54.919Z,23.08
2023-04-22T06:15:55.046Z,23.08
2023-04-22T06:16:55.089Z,23.08
2023-04-22T06:17:55.249Z,23.09
2023-04-22T06:18:56.241Z,23.09
2023-04-22T06:19:56.474Z,23.09
2023-04-22T06:20:55.357Z,23.09
2023-04-22T06:21:55.418Z,23.09
2023-04-22T06:22:56.075Z,23.09
2023-04-22T06:23:55.525Z,23.09
2023-04-22T06:24:55.552Z,23.09
2023-04-22T06:25:55.639Z,23.09
2023-04-22T06:26:55.686Z,23.09
2023-04-22T06:27:55.753Z,23.10
2023-04-22T06:28:55.846Z,23.09
2023-04-22T06:29:55.864Z,23.09
2023-04-22T06:30:55.973Z,23.09
2023-04-22T06:31:56.049Z,23.09
2023-04-22T06:32:56.959Z,23.10
2023-04-22T06:33:56.421Z,23.09
2023-04-22T06:34:56.170Z,23.10
2023-04-22T06:35:57.054Z,23.09
2023-04-22T06:36:56.825Z,23.09
2023-04-22T06:37:56.664Z,23.09
2023-04-22T06:38:56.776Z,23.10
2023-04-22T06:39:56.968Z,23.10
2023-04-22T06:40:56.578Z,23.10
2023-04-22T06:41:56.630Z,23.10
2023-04-22T06:42:57.020Z,23.10
2023-04-22T06:43:56.745Z,23.10
2023-04-22T06:44:57.477Z,23.11
2023-04-22T06:45:56.895Z,23.12
2023-04-22T06:46:58.300Z,23.11
2023-04-22T06:47:57.005Z,23.11
2023-04-22T06:48:57.083Z,23.11
2023-04-22T06:49:57.121Z,23.12
2023-04-22T06:50:57.147Z,23.12
2023-04-22T06:51:57.329Z,23.12
2023-04-22T06:52:57.273Z,23.13
2023-04-22T06:53:57.542Z,23.13
2023-04-22T06:54:57.429Z,23.13
2023-04-22T06:55:58.483Z,23.13
2023-04-22T06:56:57.579Z,23.12
2023-04-22T06:57:57.604Z,23.13
2023-04-22T06:58:57.900Z,23.14
2023-04-22T06:59:57.986Z,23.14
2023-04-22T07:00:57.779Z,23.13
2023-04-22T07:01:57.928Z,23.13
2023-04-22T07:02:57.955Z,23.13
2023-04-22T07:03:58.047Z,23.14
2023-04-22T07:04:58.011Z,23.14
2023-04-22T07:05:58.073Z,23.15
2023-04-22T07:06:58.449Z,23.15
2023-04-22T07:07:58.982Z,23.15
2023-04-22T07:08:58.531Z,23.15
2023-04-22T07:09:58.349Z,23.15
2023-04-22T07:10:58.376Z,23.15
2023-04-22T07:11:58.431Z,23.15
2023-04-22T07:12:58.685Z,23.15
2023-04-22T07:13:58.500Z,23.16
2023-04-22T07:14:58.556Z,23.16
2023-04-22T07:15:58.619Z,23.16
2023-04-22T07:16:58.727Z,23.16
2023-04-22T07:17:58.773Z,23.16
2023-04-22T07:18:59.031Z,23.17
2023-04-22T07:19:58.837Z,23.17
2023-04-22T07:20:58.977Z,23.17
2023-04-22T07:21:59.071Z,23.17
2023-04-22T07:22:59.087Z,23.18
2023-04-22T07:23:59.228Z,23.17
2023-04-22T07:24:59.104Z,23.17
2023-04-22T07:25:59.278Z,23.17
2023-04-22T07:26:59.589Z,23.18
2023-04-22T07:27:59.351Z,23.18
2023-04-22T07:28:59.321Z,23.18
2023-04-22T07:29:59.372Z,23.19
2023-04-22T07:30:59.416Z,23.19
2023-04-22T07:31:59.701Z,23.19
2023-04-22T07:33:00.013Z,23.20
2023-04-22T07:33:59.731Z,23.20
2023-04-22T07:34:59.660Z,23.20
2023-04-22T07:35:59.687Z,23.20
2023-04-22T07:37:00.139Z,23.20
2023-04-22T07:37:59.802Z,23.21
2023-04-22T07:39:00.208Z,23.20
2023-04-22T07:40:00.279Z,23.21
2023-04-22T07:40:59.974Z,23.21
2023-04-22T07:42:00.347Z,23.21
2023-04-22T07:43:00.025Z,23.22
2023-04-22T07:44:00.432Z,23.22
2023-04-22T07:45:00.168Z,23.22
2023-04-22T07:46:00.249Z,23.22
2023-04-22T07:47:00.581Z,23.22
2023-04-22T07:48:00.309Z,23.23
2023-04-22T07:49:00.312Z,23.23
2023-04-22T07:50:00.369Z,23.23
2023-04-22T07:51:00.402Z,23.22
2023-04-22T07:52:00.500Z,23.23
2023-04-22T07:53:00.518Z,23.23
2023-04-22T07:54:00.518Z,23.24
2023-04-22T07:55:00.548Z,23.24
2023-04-22T07:56:02.086Z,23.24
2023-04-22T07:57:00.709Z,23.24
2023-04-22T07:58:00.744Z,23.24
2023-04-22T07:59:00.784Z,23.24
2023-04-22T08:00:00.853Z,23.25
2023-04-22T08:01:00.986Z,23.25
2023-04-22T08:02:01.015Z,23.25
2023-04-22T08:03:01.129Z,23.25
2023-04-22T08:04:01.278Z,23.26
2023-04-22T08:05:01.120Z,23.26
2023-04-22T08:06:01.150Z,23.26
2023-04-22T08:07:01.924Z,23.26
2023-04-22T08:08:01.172Z,23.27
2023-04-22T08:09:01.212Z,23.28
2023-04-22T08:10:01.185Z,23.27
2023-04-22T08:11:01.193Z,23.28
2023-04-22T08:12:01.186Z,23.28
2023-04-22T08:13:01.117Z,23.29
2023-04-22T08:14:01.143Z,23.29
2023-04-22T08:15:01.203Z,23.30
2023-04-22T08:16:08.844Z,23.30
2023-04-22T08:17:01.162Z,23.31
2023-04-22T08:18:01.145Z,23.31
2023-04-22T08:19:01.088Z,23.32
2023-04-22T08:20:01.142Z,23.33
2023-04-22T08:21:01.103Z,23.34
2023-04-22T08:22:01.139Z,23.33
2023-04-22T08:23:01.107Z,23.34
2023-04-22T08:24:01.082Z,23.34
2023-04-22T08:25:01.380Z,23.36
2023-04-22T08:26:01.126Z,23.35
2023-04-22T08:27:02.040Z,23.35
2023-04-22T08:28:01.043Z,23.35
2023-04-22T08:29:01.052Z,23.36
2023-04-22T08:30:01.071Z,23.36
2023-04-22T08:31:01.268Z,23.37
2023-04-22T08:32:01.978Z,23.37
2023-04-22T08:33:01.239Z,23.37
2023-04-22T08:34:01.612Z,23.37
2023-04-22T08:35:04.887Z,23.37
2023-04-22T08:36:01.299Z,23.37
2023-04-22T08:37:01.456Z,23.37
2023-04-22T08:38:01.308Z,23.38
2023-04-22T08:39:01.278Z,23.38
2023-04-22T08:40:01.299Z,23.39
2023-04-22T08:41:01.277Z,23.39
2023-04-22T08:42:01.585Z,23.40
2023-04-22T08:43:01.275Z,23.40
2023-04-22T08:44:02.181Z,23.40
2023-04-22T08:45:01.236Z,23.40
2023-04-22T08:46:01.357Z,23.40
2023-04-22T08:47:02.875Z,23.41
2023-04-22T08:48:01.274Z,23.41
2023-04-22T08:49:01.602Z,23.42
2023-04-22T08:50:01.179Z,23.41
2023-04-22T08:51:01.201Z,23.42
2023-04-22T08:52:01.199Z,23.42
2023-04-22T08:53:01.207Z,23.42
2023-04-22T08:54:01.184Z,23.42
2023-04-22T08:55:01.167Z,23.42
2023-04-22T08:56:01.550Z,23.43
2023-04-22T08:57:01.229Z,23.42
2023-04-22T08:58:01.341Z,23.42
2023-04-22T08:59:01.309Z,23.43
2023-04-22T09:00:01.411Z,23.43
2023-04-22T09:01:03.157Z,23.43
2023-04-22T09:03:20.429Z,23.40
2023-04-22T09:04:21.062Z,23.42
2023-04-22T09:05:20.297Z,23.42
2023-04-22T09:06:20.293Z,23.43
2023-04-22T09:07:20.333Z,23.43
2023-04-22T09:08:20.262Z,23.44
2023-04-22T09:09:20.263Z,23.44
2023-04-22T09:10:20.331Z,23.45
2023-04-22T09:11:20.284Z,23.45
2023-04-22T09:12:20.259Z,23.45
2023-04-22T09:13:20.241Z,23.45
2023-04-22T09:14:20.225Z,23.46
2023-04-22T09:15:20.271Z,23.46
2023-04-22T09:16:20.251Z,23.46
2023-04-22T09:17:20.248Z,23.46
2023-04-22T09:18:20.208Z,23.46
2023-04-22T09:19:20.179Z,23.47
2023-04-22T09:20:20.229Z,23.47
2023-04-22T09:21:20.194Z,23.48
2023-04-22T09:22:20.198Z,23.47
2023-04-22T09:23:20.151Z,23.47
2023-04-22T09:24:20.162Z,23.48
2023-04-22T09:25:20.146Z,23.48
2023-04-22T09:26:20.153Z,23.47
2023-04-22T09:27:20.141Z,23.48
2023-04-22T09:28:20.187Z,23.49
2023-04-22T09:29:20.112Z,23.48
2023-04-22T09:30:20.132Z,23.49
2023-04-22T09:31:20.155Z,23.49
2023-04-22T09:32:20.109Z,23.49
2023-04-22T09:33:20.077Z,23.49
2023-04-22T09:34:20.092Z,23.49
2023-04-22T09:35:20.069Z,23.49
2023-04-22T09:36:20.058Z,23.49
2023-04-22T09:37:20.117Z,23.50
2023-04-22T09:38:20.189Z,23.49
2023-04-22T09:39:20.217Z,23.50
2023-04-22T09:40:20.260Z,23.50
2023-04-22T09:41:20.287Z,23.51
2023-04-22T09:42:21.216Z,23.51
2023-04-22T09:43:20.335Z,23.51
2023-04-22T09:44:20.373Z,23.51
2023-04-22T09:45:20.413Z,23.51
2023-04-22T09:46:20.572Z,23.51
2023-04-22T09:47:20.506Z,23.51
2023-04-22T09:48:20.513Z,23.52
2023-04-22T09:49:20.558Z,23.52
2023-04-22T09:50:20.618Z,23.52
2023-04-22T09:51:20.658Z,23.52
2023-04-22T09:52:20.706Z,23.52
2023-04-22T09:53:20.729Z,23.52
2023-04-22T09:54:20.775Z,23.53
2023-04-22T09:55:20.807Z,23.53
2023-04-22T09:56:20.860Z,23.53
2023-04-22T09:57:20.929Z,23.53
2023-04-22T09:58:20.967Z,23.53
2023-04-22T09:59:20.962Z,23.53
2023-04-22T10:00:20.970Z,23.53
2023-04-22T10:01:21.168Z,23.54
2023-04-22T10:02:21.098Z,23.54
2023-04-22T10:03:21.126Z,23.54
2023-04-22T10:04:21.232Z,23.54
2023-04-22T10:05:21.133Z,23.55
2023-04-22T10:06:21.210Z,23.54
2023-04-22T10:07:21.208Z,23.55
2023-04-22T10:08:21.217Z,23.55
2023-04-22T10:09:21.268Z,23.55
2023-04-22T10:10:21.295Z,23.55
2023-04-22T10:11:21.332Z,23.56
2023-04-22T10:12:32.780Z,23.56
2023-04-22T10:13:22.519Z,23.56
2023-04-22T10:14:21.349Z,23.57
2023-04-22T10:15:21.372Z,23.56
2023-04-22T10:16:21.344Z,23.57
2023-04-22T10:17:21.416Z,23.57
2023-04-22T10:18:21.321Z,23.57
2023-04-22T10:19:21.339Z,23.58
2023-04-22T10:20:21.305Z,23.58
2023-04-22T10:21:21.310Z,23.59
2023-04-22T10:22:21.307Z,23.59
2023-04-22T10:23:21.284Z,23.59
2023-04-22T10:24:21.335Z,23.58
2023-04-22T10:25:21.277Z,23.59
2023-04-22T10:26:21.277Z,23.59
2023-04-22T10:27:21.259Z,23.59
2023-04-22T10:28:21.263Z,23.60
2023-04-22T10:29:21.266Z,23.60
2023-04-22T10:30:21.295Z,23.60
2023-04-22T10:31:21.342Z,23.60
2023-04-22T10:32:21.448Z,23.60
2023-04-22T10:33:21.457Z,23.60
2023-04-22T10:34:21.392Z,23.60
2023-04-22T10:35:21.445Z,23.61
2023-04-22T10:36:21.464Z,23.61
2023-04-22T10:37:21.510Z,23.61
2023-04-22T10:38:21.536Z,23.62
2023-04-22T10:39:21.558Z,23.61
2023-04-22T10:40:21.577Z,23.62
2023-04-22T10:41:21.640Z,23.61
2023-04-22T10:42:21.662Z,23.62
2023-04-22T10:43:21.661Z,23.61
2023-04-22T10:44:21.728Z,23.62
2023-04-22T10:45:21.731Z,23.61
2023-04-22T10:46:21.906Z,23.62
2023-04-22T10:47:21.804Z,23.61
2023-04-22T10:48:21.829Z,23.61
2023-04-22T10:49:21.845Z,23.62
2023-04-22T10:50:21.905Z,23.62
2023-04-22T10:51:21.932Z,23.62
2023-04-22T10:52:21.940Z,23.62
2023-04-22T10:53:21.964Z,23.62
2023-04-22T10:54:21.993Z,23.63
2023-04-22T10:55:22.017Z,23.62
2023-04-22T10:56:22.050Z,23.62
2023-04-22T10:57:22.111Z,23.63
2023-04-22T10:58:22.145Z,23.63
2023-04-22T10:59:22.196Z,23.62
2023-04-22T11:00:22.174Z,23.63
2023-04-22T11:01:22.252Z,23.62
2023-04-22T11:02:22.278Z,23.64
2023-04-22T11:03:22.392Z,23.63
2023-04-22T11:04:22.429Z,23.63
2023-04-22T11:05:24.634Z,23.63
2023-04-22T11:06:22.369Z,23.63
2023-04-22T11:07:22.355Z,23.63
2023-04-22T11:08:22.313Z,23.63
2023-04-22T11:09:22.305Z,23.64
2023-04-22T11:10:22.326Z,23.63
2023-04-22T11:11:22.279Z,23.63
2023-04-22T11:12:22.273Z,23.64
2023-04-22T11:13:22.324Z,23.64
2023-04-22T11:14:22.278Z,23.64
2023-04-22T11:15:22.270Z,23.64
2023-04-22T11:16:22.623Z,23.64
2023-04-22T11:17:22.279Z,23.64
2023-04-22T11:18:22.232Z,23.65
2023-04-22T11:19:22.224Z,23.65
2023-04-22T11:20:22.260Z,23.65
2023-04-22T11:21:22.249Z,23.65
2023-04-22T11:22:23.260Z,23.65
2023-04-22T11:23:22.276Z,23.65
2023-04-22T11:24:22.178Z,23.66
2023-04-22T11:25:22.220Z,23.65
2023-04-22T11:26:22.180Z,23.66
2023-04-22T11:27:22.184Z,23.65
2023-04-22T11:28:22.182Z,23.65
2023-04-22T11:29:23.356Z,23.65
2023-04-22T11:30:22.150Z,23.65
2023-04-22T11:31:22.208Z,23.66
2023-04-22T11:32:22.185Z,23.65
2023-04-22T11:33:22.132Z,23.66
2023-04-22T11:34:22.133Z,23.66
2023-04-22T11:35:22.124Z,23.66
2023-04-22T11:36:22.142Z,23.66
2023-04-22T11:37:22.139Z,23.67
2023-04-22T11:38:22.108Z,23.67
2023-04-22T11:39:22.098Z,23.67
2023-04-22T11:41:23.115Z,23.66
2023-04-22T11:42:22.073Z,23.67
2023-04-22T11:43:22.052Z,23.68
2023-04-22T11:44:22.039Z,23.67
2023-04-22T11:45:22.055Z,23.67
2023-04-22T11:46:22.634Z,23.67
2023-04-22T11:47:22.123Z,23.67
2023-04-22T11:48:22.015Z,23.68
2023-04-22T11:49:22.020Z,23.67
2023-04-22T11:50:21.992Z,23.67
2023-04-22T11:51:21.983Z,23.67
2023-04-22T11:52:21.994Z,23.67
2023-04-22T11:53:21.979Z,23.67
2023-04-22T11:54:21.969Z,23.68
2023-04-22T11:55:21.981Z,23.67
2023-04-22T11:56:21.961Z,23.67
2023-04-22T11:57:22.008Z,23.67
2023-04-22T11:58:21.985Z,23.67
2023-04-22T11:59:21.909Z,23.67
2023-04-22T12:00:21.939Z,23.67
2023-04-22T12:01:21.909Z,23.67
2023-04-22T12:02:22.033Z,23.68
2023-04-22T12:03:22.055Z,23.67
2023-04-22T12:04:22.017Z,23.68
2023-04-22T12:05:21.997Z,23.68
2023-04-22T12:06:21.997Z,23.68
2023-04-22T12:07:22.049Z,23.67
2023-04-22T12:08:22.068Z,23.67
2023-04-22T12:09:22.098Z,23.68
2023-04-22T12:10:22.123Z,23.68
2023-04-22T12:11:22.120Z,23.67
2023-04-22T12:12:22.148Z,23.67
2023-04-22T12:13:22.194Z,23.67
2023-04-22T12:14:22.234Z,23.67
2023-04-22T12:15:22.249Z,23.67
2023-04-22T12:16:22.335Z,23.67
2023-04-22T12:17:22.345Z,23.67
2023-04-22T12:18:22.318Z,23.68
2023-04-22T12:19:22.370Z,23.68
2023-04-22T12:20:24.161Z,23.67
2023-04-22T12:21:22.414Z,23.67
2023-04-22T12:22:22.451Z,23.67
2023-04-22T12:23:22.457Z,23.67
2023-04-22T12:24:22.533Z,23.66
2023-04-22T12:25:22.518Z,23.66
2023-04-22T12:26:25.405Z,23.66
2023-04-22T12:27:22.546Z,23.67
2023-04-22T12:28:22.540Z,23.66
2023-04-22T12:29:22.545Z,23.67
2023-04-22T12:30:22.504Z,23.66
2023-04-22T12:31:22.595Z,23.66
2023-04-22T12:32:24.730Z,23.67
2023-04-22T12:33:22.616Z,23.65
2023-04-22T12:34:22.497Z,23.66
2023-04-22T12:35:22.547Z,23.66
2023-04-22T12:36:22.610Z,23.66
2023-04-22T12:37:22.608Z,23.66
2023-04-22T12:38:22.670Z,23.65
2023-04-22T12:39:22.637Z,23.66
2023-04-22T12:40:22.704Z,23.67
2023-04-22T12:41:22.727Z,23.66
2023-04-22T12:42:22.735Z,23.66
2023-04-22T12:43:22.807Z,23.66
2023-04-22T12:44:24.900Z,23.66
2023-04-22T12:45:22.831Z,23.66
2023-04-22T12:46:22.867Z,23.66
2023-04-22T12:47:22.918Z,23.66
2023-04-22T12:48:22.886Z,23.66
2023-04-22T12:49:22.913Z,23.65
2023-04-22T12:50:22.948Z,23.66
2023-04-22T12:51:22.973Z,23.65
2023-04-22T12:52:23.018Z,23.65
2023-04-22T12:53:23.082Z,23.65
2023-04-22T12:54:23.084Z,23.65
2023-04-22T12:55:23.094Z,23.65
2023-04-22T12:56:23.140Z,23.65